Time;durP1;ratioP1;P1;durP2;ratioP2;P2;SDS_P1;SDS_P2;PMS_P1;PMS_P2;Temp;Humidity;BMP_temperature;BMP_pressure;BME280_temperature;BME280_humidity;BME280_pressure;Samples;Min_cycle;Max_cycle;Signal;HPM_P1;HPM_P2
2022/09/08 00:00:53;;;;;;;20.50;18.23;;;15.40;99.90;;;;;;5124113;28;20486;-79
2022/09/08 00:03:22;;;;;;;19.98;15.98;;;15.40;99.90;;;;;;5103832;28;20034;-78
2022/09/08 00:05:57;;;;;;;25.15;22.55;;;15.40;99.90;;;;;;5100916;28;20058;-78
2022/09/08 00:08:24;;;;;;;26.98;23.27;;;15.30;99.90;;;;;;5106407;28;20039;-78
2022/09/08 00:10:55;;;;;;;31.83;27.88;;;15.30;99.90;;;;;;5104094;28;20088;-78
2022/09/08 00:13:22;;;;;;;35.58;28.98;;;15.30;99.90;;;;;;5100797;28;20409;-78
2022/09/08 00:15:47;;;;;;;31.65;25.02;;;15.30;99.90;;;;;;5108208;28;20043;-79
2022/09/08 00:18:13;;;;;;;35.95;28.08;;;15.30;99.90;;;;;;5108267;28;20089;-78
2022/09/08 00:20:39;;;;;;;32.72;27.38;;;15.30;99.90;;;;;;5107767;28;20082;-80
2022/09/08 00:23:05;;;;;;;32.30;27.77;;;15.30;99.90;;;;;;5104398;28;20054;-78
2022/09/08 00:25:30;;;;;;;37.30;30.17;;;15.30;99.90;;;;;;5102885;28;20065;-78
2022/09/08 00:27:56;;;;;;;38.47;31.95;;;15.30;99.90;;;;;;5109065;28;20035;-79
2022/09/08 00:30:21;;;;;;;36.25;30.40;;;15.30;99.90;;;;;;5106728;28;20574;-78
2022/09/08 00:32:47;;;;;;;36.70;30.65;;;15.30;99.90;;;;;;5087588;28;20042;-78
2022/09/08 00:35:14;;;;;;;47.00;38.25;;;15.20;99.90;;;;;;5102455;28;20043;-78
2022/09/08 00:37:43;;;;;;;48.05;33.05;;;15.20;99.90;;;;;;5101611;28;20050;-78
2022/09/08 00:40:09;;;;;;;36.85;30.52;;;15.20;99.90;;;;;;5108447;28;20027;-78
2022/09/08 00:42:35;;;;;;;32.30;28.17;;;15.20;99.90;;;;;;5107796;28;20579;-78
2022/09/08 00:45:00;;;;;;;38.40;33.35;;;15.20;99.90;;;;;;5103058;28;20122;-80
2022/09/08 00:47:34;;;;;;;33.20;27.02;;;15.10;99.90;;;;;;5102254;28;20043;-78
2022/09/08 00:50:04;;;;;;;32.47;26.88;;;15.20;99.90;;;;;;5105315;28;20388;-78
2022/09/08 00:52:38;;;;;;;42.15;34.30;;;15.10;99.90;;;;;;5105830;28;20054;-78
2022/09/08 00:55:07;;;;;;;45.77;36.33;;;15.10;99.90;;;;;;5104564;28;20043;-79
2022/09/08 00:57:32;;;;;;;46.83;37.80;;;15.10;99.90;;;;;;5105674;28;20042;-78
2022/09/08 00:59:58;;;;;;;58.83;44.97;;;15.10;99.90;;;;;;5124444;28;20124;-79
2022/09/08 01:02:25;;;;;;;59.58;44.08;;;15.10;99.90;;;;;;5106529;28;20152;-79
2022/09/08 01:05:00;;;;;;;63.13;46.63;;;15.20;99.90;;;;;;5134477;27;20046;-79
2022/09/08 01:13:32;;;;;;;61.42;45.72;;;15.20;99.90;;;;;;5116611;27;20047;-80
2022/09/08 01:15:58;;;;;;;64.68;47.85;;;15.30;99.90;;;;;;5112434;27;20054;-79
2022/09/08 01:18:23;;;;;;;67.65;49.53;;;15.30;99.90;;;;;;5109031;27;20032;-79
2022/09/08 01:21:06;;;;;;;60.28;44.17;;;15.40;99.90;;;;;;5110459;27;20083;-79
2022/09/08 01:23:50;;;;;;;63.90;46.92;;;15.40;99.90;;;;;;5125858;27;20061;-79
2022/09/08 01:26:36;;;;;;;60.45;45.80;;;15.50;99.90;;;;;;5109920;27;20501;-79
2022/09/08 01:29:03;;;;;;;;;;;15.50;99.90;;;;;;5106571;27;20092;-79
2022/09/08 01:31:33;;;;;;;67.28;49.15;;;15.70;99.90;;;;;;5130257;27;19920;-79
2022/09/08 01:34:00;;;;;;;62.65;46.75;;;15.70;99.90;;;;;;5093835;27;20057;-79
2022/09/08 01:39:01;;;;;;;64.63;48.53;;;15.80;99.90;;;;;;5079686;27;20483;-78
2022/09/08 01:41:27;;;;;;;58.85;44.72;;;15.90;99.90;;;;;;5069349;28;20048;-78
2022/09/08 01:43:52;;;;;;;57.83;44.42;;;15.90;99.90;;;;;;5076889;28;20402;-78
2022/09/08 01:46:18;;;;;;;57.70;45.78;;;15.90;99.90;;;;;;5075041;28;20041;-77
2022/09/08 01:48:44;;;;;;;57.33;45.20;;;15.90;99.90;;;;;;5072253;28;20074;-78
2022/09/08 01:51:12;;;;;;;57.95;45.58;;;16.00;99.90;;;;;;5063567;22;20048;-78
2022/09/08 01:53:42;;;;;;;63.35;44.25;;;16.00;99.90;;;;;;4977314;28;20460;-78
2022/09/08 01:56:12;;;;;;;54.63;41.65;;;16.00;99.90;;;;;;5008600;28;20042;-78
2022/09/08 01:58:48;;;;;;;57.08;44.95;;;16.10;99.90;;;;;;5026858;28;20179;-78
2022/09/08 02:01:20;;;;;;;55.28;43.80;;;16.10;99.90;;;;;;5017523;28;20050;-78
2022/09/08 02:03:47;;;;;;;52.20;42.13;;;16.20;99.90;;;;;;5021158;28;20049;-77
2022/09/08 02:06:25;;;;;;;57.78;46.70;;;16.20;99.90;;;;;;4984141;28;20041;-77
2022/09/08 02:08:53;;;;;;;53.60;42.30;;;16.30;99.90;;;;;;5015409;28;20045;-78
2022/09/08 02:11:28;;;;;;;58.38;45.20;;;16.20;99.90;;;;;;5018054;28;20038;-78
2022/09/08 02:14:14;;;;;;;56.17;47.30;;;16.30;99.90;;;;;;4981795;28;20104;-78
2022/09/08 02:16:44;;;;;;;53.73;45.23;;;16.30;99.90;;;;;;5001264;28;20045;-78
2022/09/08 02:19:11;;;;;;;61.70;45.55;;;16.30;99.90;;;;;;5002930;28;20057;-77
2022/09/08 02:21:37;;;;;;;55.05;42.95;;;16.30;99.90;;;;;;5020662;28;20042;-77
2022/09/08 02:24:06;;;;;;;57.05;44.13;;;16.30;99.90;;;;;;5016763;28;20106;-77
2022/09/08 02:26:42;;;;;;;56.75;43.38;;;16.30;99.90;;;;;;5019775;28;20046;-77
2022/09/08 02:29:28;;;;;;;;;;;16.30;99.90;;;;;;4999855;28;20045;-77
2022/09/08 02:32:01;;;;;;;57.78;44.20;;;16.30;99.90;;;;;;5004616;28;20360;-77
2022/09/08 02:34:28;;;;;;;55.63;43.38;;;16.40;99.90;;;;;;4999558;28;20065;-77
2022/09/08 02:37:13;;;;;;;59.28;45.42;;;16.40;99.90;;;;;;5017829;28;20045;-77
2022/09/08 02:39:42;;;;;;;57.50;45.42;;;16.40;99.90;;;;;;5015844;28;20145;-77
2022/09/08 02:42:11;;;;;;;55.03;44.42;;;16.40;99.90;;;;;;4982620;28;20057;-77
2022/09/08 02:44:43;;;;;;;63.80;47.08;;;16.40;99.90;;;;;;5019328;28;20025;-77
2022/09/08 02:47:45;;;;;;;60.90;46.22;;;16.40;99.90;;;;;;4972933;28;20052;-77
2022/09/08 02:50:14;;;;;;;56.90;47.35;;;16.40;99.90;;;;;;4990803;28;20049;-77
2022/09/08 02:52:59;;;;;;;60.08;44.53;;;16.30;99.90;;;;;;4999735;28;20840;-77
2022/09/08 02:56:01;;;;;;;60.00;46.65;;;16.40;99.90;;;;;;4965565;28;20049;-77
2022/09/08 02:58:28;;;;;;;56.47;43.70;;;16.30;99.90;;;;;;4986854;28;20054;-77
2022/09/08 03:00:54;;;;;;;53.38;44.90;;;16.30;99.90;;;;;;4997969;28;20042;-77
2022/09/08 03:03:22;;;;;;;59.33;46.92;;;16.40;99.90;;;;;;5003547;28;20088;-78
2022/09/08 03:05:48;;;;;;;60.95;46.60;;;16.30;99.90;;;;;;4995136;28;20037;-77
2022/09/08 03:08:14;;;;;;;58.42;46.75;;;16.30;99.90;;;;;;5009192;28;20057;-78
2022/09/08 03:10:41;;;;;;;56.17;45.10;;;16.30;99.90;;;;;;5003345;28;20076;-77
2022/09/08 03:13:07;;;;;;;60.28;47.75;;;16.30;99.90;;;;;;5003367;28;20043;-77
2022/09/08 03:15:33;;;;;;;60.28;47.33;;;16.30;99.90;;;;;;4997723;28;20520;-77
2022/09/08 03:17:59;;;;;;;66.03;48.95;;;16.30;99.90;;;;;;5002238;28;20077;-77
2022/09/08 03:20:26;;;;;;;60.60;48.28;;;16.20;99.90;;;;;;5001312;28;20045;-77
2022/09/08 03:22:52;;;;;;;60.92;48.20;;;16.30;99.90;;;;;;5004594;28;20077;-77
2022/09/08 03:25:18;;;;;;;60.50;46.53;;;16.30;99.90;;;;;;5001339;28;20054;-77
2022/09/08 03:27:44;;;;;;;64.53;48.30;;;16.30;99.90;;;;;;5004343;28;20050;-78
2022/09/08 03:30:12;;;;;;;62.13;46.53;;;16.30;99.90;;;;;;5007789;28;20097;-78
2022/09/08 03:32:39;;;;;;;61.83;47.15;;;16.30;99.90;;;;;;5003634;28;20082;-77
2022/09/08 03:35:11;;;;;;;63.17;48.45;;;16.30;99.90;;;;;;4987322;28;20038;-77
2022/09/08 03:37:38;;;;;;;58.80;45.75;;;16.40;99.90;;;;;;5001338;28;20038;-77
2022/09/08 03:40:08;;;;;;;58.33;44.42;;;16.30;99.90;;;;;;5003635;28;20053;-77
2022/09/08 03:42:35;;;;;;;56.00;43.88;;;16.30;99.90;;;;;;4999821;28;20049;-77
2022/09/08 03:45:03;;;;;;;59.70;43.80;;;16.30;99.90;;;;;;5003845;28;20053;-77
2022/09/08 03:47:29;;;;;;;54.60;42.45;;;16.40;99.90;;;;;;5001071;28;20042;-77
2022/09/08 03:49:55;;;;;;;64.75;46.30;;;16.40;99.90;;;;;;5002913;28;20038;-77
2022/09/08 03:52:20;;;;;;;56.22;45.70;;;16.40;99.90;;;;;;5003176;28;20038;-77
2022/09/08 03:54:50;;;;;;;59.10;46.58;;;16.40;99.90;;;;;;5001159;28;20041;-77
2022/09/08 03:57:18;;;;;;;57.78;43.97;;;16.30;99.90;;;;;;4999846;28;20054;-77
2022/09/08 03:59:44;;;;;;;57.67;46.17;;;16.40;99.90;;;;;;4991034;28;20045;-77
2022/09/08 04:02:10;;;;;;;58.45;45.17;;;16.30;99.90;;;;;;5003890;28;20038;-77
2022/09/08 04:04:36;;;;;;;59.67;47.88;;;16.40;99.90;;;;;;4997941;28;20030;-77
2022/09/08 04:07:03;;;;;;;61.17;45.88;;;16.40;99.90;;;;;;5003997;28;20050;-77
2022/09/08 04:09:28;;;;;;;59.40;45.03;;;16.40;99.90;;;;;;5000570;28;20043;-77
2022/09/08 04:11:57;;;;;;;61.38;44.97;;;16.30;99.90;;;;;;5006324;28;20126;-77
2022/09/08 04:14:22;;;;;;;65.72;49.45;;;16.40;99.90;;;;;;5001040;28;20045;-77
2022/09/08 04:16:48;;;;;;;60.92;45.05;;;16.40;99.90;;;;;;5001160;28;20035;-77
2022/09/08 04:19:13;;;;;;;62.60;47.35;;;16.40;99.90;;;;;;5001714;28;20054;-77
2022/09/08 04:21:39;;;;;;;63.28;49.40;;;16.30;99.90;;;;;;4999330;28;20040;-77
2022/09/08 04:24:05;;;;;;;63.67;49.03;;;16.30;99.90;;;;;;4998739;28;20042;-77
2022/09/08 04:26:31;;;;;;;65.28;48.83;;;16.40;99.90;;;;;;5000753;28;20097;-77
2022/09/08 04:28:58;;;;;;;62.45;45.80;;;16.40;99.90;;;;;;4996564;28;20168;-77
2022/09/08 04:31:23;;;;;;;62.90;46.05;;;16.40;99.90;;;;;;4997733;28;20070;-77
2022/09/08 04:33:49;;;;;;;67.05;47.10;;;16.40;99.90;;;;;;4984583;28;20045;-77
2022/09/08 04:36:17;;;;;;;61.15;47.58;;;16.40;99.90;;;;;;4997877;28;20038;-77
2022/09/08 04:38:43;;;;;;;64.40;48.15;;;16.30;99.90;;;;;;5015511;28;20038;-77
2022/09/08 04:41:12;;;;;;;62.80;46.90;;;16.40;99.90;;;;;;4996949;28;20092;-76
2022/09/08 04:43:38;;;;;;;64.90;47.78;;;16.40;99.90;;;;;;4998662;28;20330;-77
2022/09/08 04:46:07;;;;;;;65.78;48.15;;;16.40;99.90;;;;;;5000442;28;20038;-77
2022/09/08 04:48:34;;;;;;;59.15;45.65;;;16.40;99.90;;;;;;5004627;28;20054;-77
2022/09/08 04:51:01;;;;;;;64.45;48.42;;;16.40;99.90;;;;;;4985394;28;20117;-77
2022/09/08 04:53:29;;;;;;;61.67;47.15;;;16.30;99.90;;;;;;5000095;28;20113;-77
2022/09/08 04:55:55;;;;;;;66.50;49.22;;;16.30;99.90;;;;;;4999496;28;21320;-77
2022/09/08 04:58:21;;;;;;;63.30;46.75;;;16.30;99.90;;;;;;5003524;28;20034;-77
2022/09/08 05:00:47;;;;;;;63.88;45.97;;;16.20;99.90;;;;;;5002327;28;20038;-77
2022/09/08 05:03:13;;;;;;;64.85;46.22;;;16.20;99.90;;;;;;5000560;28;20038;-77
2022/09/08 05:05:39;;;;;;;65.82;46.63;;;16.20;99.90;;;;;;4981739;28;20053;-77
2022/09/08 05:08:05;;;;;;;66.85;46.33;;;16.10;99.90;;;;;;5002711;28;20109;-77
2022/09/08 05:10:34;;;;;;;61.13;47.22;;;16.10;99.90;;;;;;5000608;28;20056;-77
2022/09/08 05:13:00;;;;;;;64.40;48.25;;;16.20;99.90;;;;;;4985731;28;20053;-77
2022/09/08 05:15:26;;;;;;;65.15;44.55;;;16.10;99.90;;;;;;5000065;28;20106;-77
2022/09/08 05:17:52;;;;;;;59.63;44.30;;;16.20;99.90;;;;;;5015578;28;20077;-77
2022/09/08 05:20:18;;;;;;;63.25;47.72;;;16.20;99.90;;;;;;5004427;28;20030;-78
2022/09/08 05:22:44;;;;;;;66.00;46.42;;;16.20;99.90;;;;;;4997674;28;20064;-77
2022/09/08 05:25:09;;;;;;;67.30;48.20;;;16.30;99.90;;;;;;5002091;28;20189;-78
2022/09/08 05:27:35;;;;;;;62.08;46.40;;;16.20;99.90;;;;;;4999094;28;20042;-78
2022/09/08 05:30:01;;;;;;;59.90;45.17;;;16.20;99.90;;;;;;5001668;28;20049;-78
2022/09/08 05:32:27;;;;;;;61.35;47.00;;;16.30;99.90;;;;;;4997338;28;20069;-78
2022/09/08 05:34:53;;;;;;;68.20;48.97;;;16.30;99.90;;;;;;4985244;28;20042;-78
2022/09/08 05:37:18;;;;;;;61.92;46.00;;;16.40;99.90;;;;;;4981365;28;20088;-78
2022/09/08 05:39:46;;;;;;;64.95;47.63;;;16.40;99.90;;;;;;5001485;28;20073;-78
2022/09/08 05:42:11;;;;;;;65.05;48.20;;;16.40;99.90;;;;;;5002271;28;20073;-78
2022/09/08 05:44:37;;;;;;;62.50;46.20;;;16.40;99.90;;;;;;5005065;28;20038;-78
2022/09/08 05:47:03;;;;;;;69.88;49.90;;;16.50;99.90;;;;;;5000307;28;20062;-78
2022/09/08 05:49:28;;;;;;;65.88;50.65;;;16.50;99.90;;;;;;4997663;28;20045;-78
2022/09/08 05:51:54;;;;;;;66.32;48.58;;;16.60;99.90;;;;;;4997351;28;20121;-79
2022/09/08 05:54:21;;;;;;;63.38;46.78;;;16.50;99.90;;;;;;5000125;28;20042;-79
2022/09/08 05:56:46;;;;;;;62.67;47.08;;;16.50;99.90;;;;;;4999906;28;20034;-79
2022/09/08 05:59:12;;;;;;;59.00;46.60;;;16.50;99.90;;;;;;4984211;28;20061;-79
2022/09/08 06:01:38;;;;;;;61.15;48.08;;;16.50;99.90;;;;;;4987070;28;20038;-79
2022/09/08 06:04:03;;;;;;;64.55;48.38;;;16.50;99.90;;;;;;4996705;28;20123;-79
2022/09/08 06:06:31;;;;;;;63.42;46.42;;;16.50;99.90;;;;;;5001673;28;20026;-79
2022/09/08 06:09:00;;;;;;;61.08;45.05;;;16.50;99.90;;;;;;5003655;28;20046;-78
2022/09/08 06:11:28;;;;;;;61.75;45.50;;;16.60;99.90;;;;;;5003294;28;20046;-78
2022/09/08 06:13:55;;;;;;;58.13;43.30;;;16.60;99.90;;;;;;5001394;28;20046;-78
2022/09/08 06:16:21;;;;;;;55.60;42.63;;;16.60;99.90;;;;;;5004341;28;20030;-78
2022/09/08 06:18:47;;;;;;;59.25;45.15;;;16.60;99.90;;;;;;5014956;28;20069;-78
2022/09/08 06:21:23;;;;;;;59.65;44.20;;;16.60;99.90;;;;;;5005323;28;21153;-78
2022/09/08 06:23:53;;;;;;;54.50;42.63;;;16.60;99.90;;;;;;4989585;28;20114;-78
2022/09/08 06:26:34;;;;;;;55.55;42.75;;;16.70;99.90;;;;;;4996269;28;20177;-80
2022/09/08 06:32:03;;;;;;;69.40;51.53;;;16.70;99.90;;;;;;4990045;28;20043;-78
2022/09/08 06:34:59;;;;;;;63.03;45.95;;;16.70;99.90;;;;;;4995441;28;20035;-78
2022/09/08 06:37:28;;;;;;;56.35;47.95;;;16.70;99.90;;;;;;4984603;28;20055;-78
2022/09/08 06:40:01;;;;;;;61.50;46.72;;;16.60;99.90;;;;;;4973675;28;20130;-78
2022/09/08 06:42:44;;;;;;;68.75;50.03;;;16.70;99.90;;;;;;4964099;28;20049;-78
2022/09/08 06:45:19;;;;;;;59.67;46.13;;;16.70;99.90;;;;;;4993169;28;20042;-78
2022/09/08 06:48:21;;;;;;;63.42;50.28;;;16.80;99.90;;;;;;5010349;28;20096;-78
2022/09/08 06:51:13;;;;;;;60.70;47.13;;;16.80;99.90;;;;;;4982494;28;20069;-79
2022/09/08 06:53:51;;;;;;;61.55;47.30;;;16.80;99.90;;;;;;5004556;28;20038;-79
2022/09/08 06:56:38;;;;;;;68.90;54.53;;;16.80;99.90;;;;;;5001669;28;20046;-79
2022/09/08 06:59:57;;;;;;;63.60;50.65;;;16.90;99.90;;;;;;4998351;28;20474;-79
2022/09/08 07:02:26;;;;;;;72.55;55.00;;;16.80;99.90;;;;;;4995594;28;20042;-78
2022/09/08 07:05:04;;;;;;;68.18;55.38;;;16.90;99.90;;;;;;4993024;28;20074;-79
2022/09/08 07:07:57;;;;;;;72.50;53.33;;;16.90;99.90;;;;;;4993103;28;20124;-80
2022/09/08 07:11:01;;;;;;;75.22;55.92;;;16.90;99.90;;;;;;4969161;28;20534;-80
2022/09/08 07:13:43;;;;;;;66.70;50.33;;;16.90;99.90;;;;;;4985703;28;20055;-81
2022/09/08 07:16:38;;;;;;;70.18;54.20;;;16.90;99.90;;;;;;5003399;28;20046;-80
2022/09/08 07:19:42;;;;;;;68.03;53.15;;;16.90;99.90;;;;;;4987747;28;20042;-81
2022/09/08 07:22:52;;;;;;;70.75;52.17;;;16.90;99.90;;;;;;5000979;28;20039;-81
2022/09/08 07:26:21;;;;;;;76.30;55.25;;;16.80;99.90;;;;;;5004196;28;20045;-79
2022/09/08 07:28:51;;;;;;;67.68;52.83;;;16.80;99.90;;;;;;4970239;28;20043;-79
2022/09/08 07:31:22;;;;;;;123.35;93.05;;;16.80;99.90;;;;;;4983370;28;20062;-78
2022/09/08 07:34:05;;;;;;;88.00;66.00;;;16.80;99.90;;;;;;4972483;28;20042;-78
2022/09/08 07:36:47;;;;;;;143.23;104.88;;;16.80;99.90;;;;;;4984780;28;20046;-78
2022/09/08 07:39:24;;;;;;;103.97;76.05;;;16.80;99.90;;;;;;4986344;28;20532;-78
2022/09/08 07:41:53;;;;;;;85.63;63.90;;;16.80;99.90;;;;;;4986498;28;20985;-78
2022/09/08 07:44:19;;;;;;;97.28;73.63;;;16.80;99.90;;;;;;4986157;28;20129;-79
2022/09/08 07:47:11;;;;;;;68.03;52.15;;;16.80;99.90;;;;;;4989630;28;20077;-80
2022/09/08 07:50:15;;;;;;;63.08;46.38;;;16.80;99.90;;;;;;4981177;28;20062;-82
2022/09/08 07:53:04;;;;;;;57.70;42.13;;;16.90;99.90;;;;;;4983397;28;20065;-82
2022/09/08 07:55:42;;;;;;;48.78;36.67;;;16.90;99.90;;;;;;4991855;28;20044;-82
2022/09/08 07:58:15;;;;;;;43.65;33.85;;;16.90;99.90;;;;;;4993394;28;20050;-82
2022/09/08 08:00:46;;;;;;;43.78;34.40;;;17.00;99.90;;;;;;4991980;28;20412;-82
2022/09/08 08:03:24;;;;;;;44.78;35.30;;;17.00;99.90;;;;;;4975914;28;20038;-82
2022/09/08 08:05:58;;;;;;;46.03;36.65;;;17.10;99.90;;;;;;4987857;28;20030;-82
2022/09/08 08:08:30;;;;;;;44.67;33.67;;;17.10;99.90;;;;;;5008660;28;20065;-82
2022/09/08 08:11:09;;;;;;;54.92;41.30;;;17.10;99.90;;;;;;4992053;28;20052;-81
2022/09/08 08:13:52;;;;;;;41.65;32.95;;;17.20;99.90;;;;;;4996700;28;20049;-82
2022/09/08 08:16:34;;;;;;;51.70;38.13;;;17.30;99.90;;;;;;4980110;28;20047;-82
2022/09/08 08:19:18;;;;;;;45.28;35.95;;;17.30;99.90;;;;;;4978153;28;20552;-82
2022/09/08 08:22:03;;;;;;;51.00;37.75;;;17.40;99.90;;;;;;4975924;28;20067;-82
2022/09/08 08:24:34;;;;;;;51.92;39.22;;;17.40;99.90;;;;;;4978734;28;20065;-82
2022/09/08 08:27:06;;;;;;;59.53;42.53;;;17.50;99.90;;;;;;4975491;28;20050;-82
2022/09/08 08:29:53;;;;;;;54.85;42.95;;;17.50;99.90;;;;;;4980083;28;20400;-82
2022/09/08 08:32:34;;;;;;;61.47;45.28;;;17.50;99.90;;;;;;4980539;28;20051;-81
2022/09/08 08:35:17;;;;;;;52.22;41.55;;;17.50;99.90;;;;;;4979399;28;20151;-82
2022/09/08 08:37:45;;;;;;;56.55;42.45;;;17.50;99.90;;;;;;4973765;28;20046;-83
2022/09/08 08:40:44;;;;;;;53.55;40.95;;;17.60;99.90;;;;;;4958670;28;20046;-83
2022/09/08 08:43:42;;;;;;;58.15;42.13;;;17.60;99.90;;;;;;4975549;28;20401;-83
2022/09/08 08:46:30;;;;;;;47.65;37.42;;;17.60;99.90;;;;;;4961547;28;20043;-84
2022/09/08 08:49:21;;;;;;;57.55;39.47;;;17.60;99.90;;;;;;4976805;28;20129;-84
2022/09/08 08:52:15;;;;;;;45.20;36.53;;;17.60;99.90;;;;;;4996011;28;20049;-83
2022/09/08 08:54:46;;;;;;;45.50;36.28;;;17.70;99.90;;;;;;4994057;28;20042;-83
2022/09/08 08:57:11;;;;;;;44.70;34.78;;;17.60;99.90;;;;;;4992517;28;20046;-84
2022/09/08 09:00:02;;;;;;;41.53;32.35;;;17.70;99.90;;;;;;4995137;28;20050;-83
2022/09/08 09:02:51;;;;;;;39.67;32.75;;;17.70;99.90;;;;;;4994734;28;20049;-83
2022/09/08 09:05:24;;;;;;;39.90;31.85;;;17.80;99.90;;;;;;4993424;28;20129;-82
2022/09/08 09:08:36;;;;;;;42.17;32.97;;;17.80;99.90;;;;;;4982380;28;20465;-82
2022/09/08 09:11:22;;;;;;;41.80;32.40;;;17.70;99.90;;;;;;4977906;28;20073;-82
2022/09/08 09:14:06;;;;;;;42.22;33.92;;;17.70;99.90;;;;;;4994766;28;20122;-82
2022/09/08 09:17:14;;;;;;;40.33;32.70;;;17.80;99.90;;;;;;4998159;28;20480;-81
2022/09/08 09:20:03;;;;;;;39.75;30.35;;;17.90;99.90;;;;;;4992674;28;20493;-81
2022/09/08 09:22:52;;;;;;;40.83;31.88;;;17.90;99.90;;;;;;4978815;28;20457;-82
2022/09/08 09:25:35;;;;;;;39.60;30.25;;;18.00;99.90;;;;;;4976425;28;20061;-82
2022/09/08 09:28:12;;;;;;;33.65;28.95;;;18.00;99.90;;;;;;4977837;28;20043;-83
2022/09/08 09:30:56;;;;;;;35.50;26.88;;;18.00;99.90;;;;;;4996416;28;20046;-82
2022/09/08 09:33:49;;;;;;;30.83;25.17;;;18.00;99.90;;;;;;4990878;28;20045;-77
2022/09/08 09:36:53;;;;;;;28.42;24.90;;;17.90;99.90;;;;;;4987976;28;20038;-77
2022/09/08 09:39:31;;;;;;;32.83;25.67;;;17.90;99.90;;;;;;4980550;28;20038;-77
2022/09/08 09:42:09;;;;;;;24.67;19.75;;;17.90;99.90;;;;;;4989649;28;20042;-76
2022/09/08 09:44:51;;;;;;;22.98;17.65;;;17.90;99.90;;;;;;4989045;28;20493;-77
2022/09/08 09:47:33;;;;;;;21.98;17.67;;;18.00;99.90;;;;;;4983397;28;20061;-78
2022/09/08 09:50:25;;;;;;;24.77;17.90;;;18.00;99.90;;;;;;4988864;28;20125;-78
2022/09/08 09:53:21;;;;;;;26.77;18.92;;;18.10;99.90;;;;;;4985474;28;20094;-77
2022/09/08 09:56:38;;;;;;;21.23;17.20;;;18.20;99.90;;;;;;4984932;28;20121;-76
2022/09/08 09:59:38;;;;;;;21.67;17.58;;;18.30;99.90;;;;;;4965923;28;20096;-75
2022/09/08 10:02:27;;;;;;;17.48;13.70;;;18.30;99.90;;;;;;4984789;28;20055;-75
2022/09/08 10:05:34;;;;;;;55.60;44.78;;;18.30;99.90;;;;;;4987424;28;20046;-75
2022/09/08 10:08:02;;;;;;;57.33;43.80;;;18.30;99.90;;;;;;4990487;28;20038;-76
2022/09/08 10:10:46;;;;;;;42.67;32.47;;;18.30;99.90;;;;;;4992304;28;20038;-76
2022/09/08 10:13:30;;;;;;;82.68;59.85;;;18.20;99.90;;;;;;4992610;28;20038;-75
2022/09/08 10:16:45;;;;;;;16.60;12.17;;;18.30;99.90;;;;;;4993173;28;20042;-75
2022/09/08 10:19:39;;;;;;;64.18;49.88;;;18.20;99.90;;;;;;4990450;28;20046;-75
2022/09/08 10:22:13;;;;;;;10.93;9.77;;;18.10;99.90;;;;;;4992152;28;20108;-76
2022/09/08 10:25:07;;;;;;;8.77;7.88;;;18.20;99.90;;;;;;4991258;28;20442;-76
2022/09/08 10:27:39;;;;;;;8.30;7.10;;;18.10;99.90;;;;;;4987632;28;20133;-76
2022/09/08 10:30:14;;;;;;;8.35;7.07;;;18.10;99.90;;;;;;4976051;28;20053;-76
2022/09/08 10:32:54;;;;;;;8.20;6.13;;;18.20;99.90;;;;;;4992624;28;20042;-77
2022/09/08 10:35:46;;;;;;;6.93;5.15;;;18.20;99.90;;;;;;4990647;28;20443;-77
2022/09/08 10:38:37;;;;;;;5.43;4.80;;;18.20;99.90;;;;;;4975738;28;20046;-78
2022/09/08 10:41:33;;;;;;;5.80;5.18;;;18.10;99.90;;;;;;4991684;28;20096;-78
2022/09/08 10:44:25;;;;;;;6.63;5.53;;;18.00;99.90;;;;;;4984727;28;20568;-78
2022/09/08 10:47:29;;;;;;;6.93;5.90;;;17.90;99.90;;;;;;4994816;28;20800;-77
2022/09/08 10:50:10;;;;;;;6.85;5.85;;;17.90;99.90;;;;;;4989245;28;20057;-76
2022/09/08 10:52:54;;;;;;;7.63;6.47;;;17.90;99.90;;;;;;4987011;28;20042;-76
2022/09/08 10:55:54;;;;;;;4.95;3.85;;;17.90;99.90;;;;;;4979352;28;20042;-78
2022/09/08 10:58:59;;;;;;;3.85;2.72;;;18.00;99.90;;;;;;4985668;28;20046;-78
2022/09/08 11:01:54;;;;;;;3.15;2.63;;;17.90;99.90;;;;;;4986369;28;20066;-78
2022/09/08 11:04:58;;;;;;;2.53;1.87;;;18.00;99.90;;;;;;4985228;28;20116;-78
2022/09/08 11:07:52;;;;;;;2.72;2.25;;;17.90;99.90;;;;;;4990140;28;20385;-78
2022/09/08 11:10:36;;;;;;;2.70;1.75;;;17.90;99.90;;;;;;4982341;28;20049;-79
2022/09/08 11:13:19;;;;;;;4.80;2.28;;;17.90;99.90;;;;;;4990498;28;20057;-78
2022/09/08 11:16:20;;;;;;;3.03;1.67;;;18.00;99.90;;;;;;4977612;28;20108;-78
2022/09/08 11:19:07;;;;;;;2.17;1.00;;;18.00;99.90;;;;;;4973374;28;20042;-79
2022/09/08 11:24:29;;;;;;;6.25;1.25;;;17.90;99.90;;;;;;3257999;26;20057;-78
2022/09/08 11:27:02;;;;;;;3.50;1.00;;;17.90;99.90;;;;;;4998829;28;20488;-79
2022/09/08 11:29:36;;;;;;;4.28;1.30;;;17.90;99.90;;;;;;5013017;28;20486;-79
2022/09/08 11:32:11;;;;;;;5.90;1.40;;;17.80;99.90;;;;;;5006542;28;20592;-79
2022/09/08 11:35:14;;;;;;;3.20;1.45;;;17.80;99.90;;;;;;5036697;23;20301;-82
2022/09/08 11:38:00;;;;;;;4.32;1.02;;;17.60;99.90;;;;;;5000662;28;20057;-82
2022/09/08 11:40:43;;;;;;;;;;;17.50;99.90;;;;;;5003761;28;20045;-82
2022/09/08 11:43:15;;;;;;;4.88;1.17;;;17.40;99.90;;;;;;5020791;28;20004;-82
2022/09/08 11:45:59;;;;;;;3.78;1.30;;;17.40;99.90;;;;;;5018366;28;20041;-83
2022/09/08 11:48:43;;;;;;;4.47;0.88;;;17.40;99.90;;;;;;5028019;28;20045;-82
2022/09/08 11:51:23;;;;;;;4.72;1.08;;;17.40;99.90;;;;;;5038987;28;20080;-82
2022/09/08 11:54:27;;;;;;;3.10;0.73;;;17.40;99.90;;;;;;5020879;28;20052;-82
2022/09/08 11:57:32;;;;;;;1.92;0.75;;;17.40;99.90;;;;;;5037156;28;20053;-82
2022/09/08 12:00:24;;;;;;;1.80;0.50;;;17.40;99.90;;;;;;5036307;28;20050;-81
2022/09/08 12:03:23;;;;;;;4.47;1.27;;;17.30;99.90;;;;;;5038306;28;20386;-81
2022/09/08 12:06:13;;;;;;;1.55;0.60;;;17.30;99.90;;;;;;5038326;28;20097;-81
2022/09/08 12:08:45;;;;;;;1.38;0.50;;;17.30;99.90;;;;;;5038212;28;20047;-80
2022/09/08 12:11:28;;;;;;;1.42;0.43;;;17.30;99.90;;;;;;5035827;28;20037;-80
2022/09/08 12:14:28;;;;;;;3.20;0.70;;;17.20;99.90;;;;;;5036491;28;20041;-80
2022/09/08 12:17:20;;;;;;;1.80;0.60;;;17.20;99.90;;;;;;5009503;28;20054;-80
2022/09/08 12:20:28;;;;;;;3.63;1.15;;;17.20;99.90;;;;;;5035222;28;20049;-82
2022/09/08 12:23:31;;;;;;;2.58;0.85;;;17.20;99.90;;;;;;5034850;28;20397;-81
2022/09/08 12:26:20;;;;;;;1.77;0.57;;;17.10;99.90;;;;;;5038221;28;20515;-81
2022/09/08 12:29:05;;;;;;;2.92;0.70;;;17.20;99.90;;;;;;5039438;28;20044;-81
2022/09/08 12:31:52;;;;;;;1.95;0.90;;;17.20;99.90;;;;;;5039273;28;20075;-82
2022/09/08 12:34:59;;;;;;;1.63;0.60;;;17.20;99.90;;;;;;5039154;28;20041;-82
2022/09/08 12:37:39;;;;;;;1.15;0.50;;;17.30;99.90;;;;;;5037014;28;20403;-83
2022/09/08 12:40:11;;;;;;;0.70;0.30;;;17.30;99.90;;;;;;5022308;28;20041;-83
2022/09/08 12:43:21;;;;;;;1.70;0.63;;;17.40;99.90;;;;;;5036593;28;20561;-83
2022/09/08 12:46:13;;;;;;;3.08;0.45;;;17.50;99.90;;;;;;4945197;28;20061;-84
2022/09/08 12:49:22;;;;;;;1.83;0.50;;;17.60;99.90;;;;;;5037521;28;20344;-83
2022/09/08 12:51:52;;;;;;;1.35;0.40;;;17.70;99.90;;;;;;5016078;28;20037;-84
2022/09/08 12:54:55;;;;;;;3.60;1.00;;;17.70;99.90;;;;;;5012084;28;20088;-83
2022/09/08 12:57:46;;;;;;;1.00;0.60;;;17.70;99.90;;;;;;4935478;29;20043;-83
2022/09/08 13:00:16;;;;;;;1.40;0.47;;;17.70;99.90;;;;;;5009311;28;20451;-83
2022/09/08 13:03:09;;;;;;;3.17;0.75;;;17.70;99.90;;;;;;4995729;28;20073;-83
2022/09/08 13:05:45;;;;;;;0.98;0.60;;;17.70;99.90;;;;;;4994904;28;20034;-83
2022/09/08 13:08:37;;;;;;;1.60;0.55;;;17.70;99.90;;;;;;5010904;28;20124;-84
2022/09/08 13:11:20;;;;;;;1.73;0.35;;;17.70;99.90;;;;;;5010772;28;20050;-83
2022/09/08 13:13:48;;;;;;;2.88;0.75;;;17.70;99.90;;;;;;5010879;28;20041;-84
2022/09/08 13:16:51;;;;;;;2.65;0.60;;;17.70;99.90;;;;;;5010870;28;20373;-84
2022/09/08 13:19:28;;;;;;;1.50;0.60;;;17.90;99.90;;;;;;5011100;28;20049;-84
2022/09/08 13:22:09;;;;;;;4.28;1.25;;;18.10;99.90;;;;;;5015566;28;20045;-84
2022/09/08 13:24:48;;;;;;;5.28;1.45;;;18.30;99.90;;;;;;5016246;28;20042;-83
2022/09/08 13:27:23;;;;;;;2.28;1.30;;;18.40;99.90;;;;;;5020222;28;20049;-83
2022/09/08 13:30:13;;;;;;;3.28;2.17;;;18.50;99.90;;;;;;5036344;28;20399;-85
2022/09/08 13:33:15;;;;;;;3.53;2.30;;;18.60;99.90;;;;;;5037239;28;20073;-83
2022/09/08 13:35:47;;;;;;;5.45;2.60;;;18.80;99.90;;;;;;5037266;28;20034;-84
2022/09/08 13:38:44;;;;;;;4.68;2.67;;;18.90;99.90;;;;;;5036866;28;20124;-83
2022/09/08 13:41:41;;;;;;;4.15;2.78;;;19.00;99.90;;;;;;5034747;28;20550;-83